Time;durP1;ratioP1;P1;durP2;ratioP2;P2;SDS_P1;SDS_P2;PMS_P1;PMS_P2;Temp;Humidity;BMP_temperature;BMP_pressure;BME280_temperature;BME280_humidity;BME280_pressure;Samples;Min_cycle;Max_cycle;Signal;HPM_P1;HPM_P2
2023/08/01 00:00:33;;;;;;;3.47;2.00;;;;;;;21.98;nan;99394.06;5081692;28;20020;-80
2023/08/01 00:02:59;;;;;;;3.25;2.00;;;;;;;21.97;nan;99385.28;5081750;28;20856;-80
2023/08/01 00:05:24;;;;;;;3.70;1.90;;;;;;;21.98;nan;99375.56;5078796;28;20027;-79
2023/08/01 00:07:50;;;;;;;2.72;2.33;;;;;;;21.96;nan;99363.31;5080546;28;20557;-80
2023/08/01 00:10:16;;;;;;;3.22;1.88;;;;;;;21.98;nan;99359.69;5080689;28;20028;-81
2023/08/01 00:12:41;;;;;;;4.20;1.80;;;;;;;21.99;nan;99369.28;5076610;28;20063;-81
2023/08/01 00:15:07;;;;;;;2.47;1.83;;;;;;;21.98;nan;99360.53;5089975;28;20616;-81
2023/08/01 00:17:33;;;;;;;4.43;1.80;;;;;;;21.99;nan;99345.50;5080825;28;20028;-81
2023/08/01 00:19:58;;;;;;;3.35;2.05;;;;;;;21.99;nan;99346.31;5081247;28;20023;-81
2023/08/01 00:22:24;;;;;;;4.63;2.08;;;;;;;21.99;nan;99329.63;5081344;28;20074;-81
2023/08/01 00:24:49;;;;;;;2.33;1.95;;;;;;;21.99;nan;99325.19;5095210;28;20111;-80
2023/08/01 00:27:14;;;;;;;2.33;1.90;;;;;;;21.99;nan;99316.41;5081685;28;20027;-81
2023/08/01 00:29:41;;;;;;;1.83;1.67;;;;;;;21.99;nan;99309.31;5065263;28;20080;-81
2023/08/01 00:32:06;;;;;;;2.80;1.83;;;;;;;22.00;nan;99304.88;5077359;28;20131;-82
2023/08/01 00:34:31;;;;;;;3.05;1.70;;;;;;;21.99;nan;99297.91;5083557;28;20042;-82
2023/08/01 00:36:57;;;;;;;2.40;2.13;;;;;;;22.00;nan;99289.00;5063410;28;20111;-82
2023/08/01 00:39:23;;;;;;;3.13;1.83;;;;;;;22.00;nan;99289.84;5083509;28;20036;-85
2023/08/01 00:41:48;;;;;;;2.00;1.63;;;;;;;21.99;nan;99288.19;5079017;28;20061;-82
2023/08/01 00:44:14;;;;;;;2.40;1.58;;;;;;;22.00;nan;99289.84;5074698;28;20028;-83
2023/08/01 00:46:39;;;;;;;3.80;1.83;;;;;;;22.01;nan;99301.22;5079899;28;20412;-82
2023/08/01 00:49:05;;;;;;;3.78;1.80;;;;;;;22.01;nan;99301.22;5081236;28;20024;-83
2023/08/01 00:51:31;;;;;;;6.10;2.47;;;;;;;22.00;nan;99300.41;5080394;28;20040;-82
2023/08/01 00:53:56;;;;;;;4.72;1.95;;;;;;;22.00;nan;99295.13;5083723;28;20074;-83
2023/08/01 00:56:22;;;;;;;2.90;1.45;;;;;;;22.00;nan;99284.56;5078290;28;20039;-84
2023/08/01 00:58:47;;;;;;;2.47;1.80;;;;;;;22.01;nan;99280.09;5082269;28;20161;-84
2023/08/01 01:01:12;;;;;;;4.68;2.00;;;;;;;22.02;nan;99282.59;5080931;28;20387;-83
2023/08/01 01:03:38;;;;;;;3.10;1.63;;;;;;;22.01;nan;99275.66;5094917;28;20038;-84
2023/08/01 01:06:39;;;;;;;5.03;2.00;;;;;;;22.02;nan;99266.75;5079202;28;20036;-84
2023/08/01 01:09:27;;;;;;;1.67;1.45;;;;;;;22.02;nan;99263.28;5073138;28;20698;-83
2023/08/01 01:11:53;;;;;;;2.67;2.00;;;;;;;22.05;nan;99255.03;5079917;28;20028;-82
2023/08/01 01:14:18;;;;;;;5.57;2.47;;;;;;;22.07;nan;99231.94;5077630;28;20502;-85
2023/08/01 01:16:43;;;;;;;2.33;1.80;;;;;;;22.08;nan;99225.66;5081250;28;20589;-81
2023/08/01 01:19:09;;;;;;;4.13;1.60;;;;;;;22.08;nan;99226.50;5083481;28;20650;-83
2023/08/01 01:21:36;;;;;;;8.27;2.15;;;;;;;22.04;nan;99222.47;5079401;28;20040;-82
2023/08/01 01:24:03;;;;;;;5.00;1.75;;;;;;;22.04;nan;99222.47;5083933;28;20077;-83
2023/08/01 01:26:28;;;;;;;8.60;3.15;;;;;;;22.03;nan;99214.72;5061705;28;20551;-82
2023/08/01 01:28:55;;;;;;;5.65;1.80;;;;;;;22.03;nan;99204.97;5082074;28;20025;-81
2023/08/01 01:31:20;;;;;;;4.05;1.98;;;;;;;22.02;nan;99213.88;5080211;27;20479;-81
2023/08/01 01:33:46;;;;;;;2.20;2.00;;;;;;;22.03;nan;99209.44;5076305;28;20122;-81
2023/08/01 01:36:11;;;;;;;6.68;1.80;;;;;;;22.01;nan;99211.38;5076523;28;20043;-81
2023/08/01 01:38:37;;;;;;;3.90;2.00;;;;;;;22.01;nan;99224.59;5064342;28;20459;-83
2023/08/01 01:41:02;;;;;;;4.40;1.83;;;;;;;22.01;nan;99224.59;5081029;28;20034;-81
2023/08/01 01:43:27;;;;;;;3.78;1.90;;;;;;;22.01;nan;99217.53;5085135;28;20046;-80
2023/08/01 01:45:52;;;;;;;6.28;1.85;;;;;;;22.02;nan;99224.47;5082896;28;20077;-81
2023/08/01 01:48:18;;;;;;;5.38;1.88;;;;;;;22.01;nan;99225.44;5078742;28;20019;-80
2023/08/01 01:50:43;;;;;;;4.47;2.55;;;;;;;22.01;nan;99227.22;5081601;28;20031;-80
2023/08/01 01:53:09;;;;;;;6.78;1.77;;;;;;;22.00;nan;99225.59;5075872;28;20031;-79
2023/08/01 01:55:34;;;;;;;3.90;3.00;;;;;;;22.00;nan;99220.28;5079465;28;20485;-80
2023/08/01 01:57:59;;;;;;;6.93;2.22;;;;;;;21.99;nan;99218.63;5080721;28;20027;-80
2023/08/01 02:00:25;;;;;;;3.50;1.98;;;;;;;21.98;nan;99223.09;5063072;28;20060;-80
2023/08/01 02:02:50;;;;;;;3.50;1.98;;;;;;;21.98;nan;99225.75;5082834;28;20027;-81
2023/08/01 02:05:16;;;;;;;4.97;1.98;;;;;;;21.99;nan;99223.94;5083395;28;20023;-80
2023/08/01 02:07:41;;;;;;;4.95;1.67;;;;;;;21.99;nan;99214.19;5080349;28;20055;-80
2023/08/01 02:10:07;;;;;;;5.35;2.25;;;;;;;21.99;nan;99210.72;5078862;28;20117;-80
2023/08/01 02:12:34;;;;;;;3.40;2.00;;;;;;;21.98;nan;99203.78;5075618;28;20030;-80
2023/08/01 02:14:59;;;;;;;5.43;2.10;;;;;;;21.98;nan;99207.25;5066013;28;20020;-80
2023/08/01 02:17:25;;;;;;;3.15;1.70;;;;;;;21.97;nan;99202.94;5061769;28;20058;-80
2023/08/01 02:19:50;;;;;;;2.42;1.77;;;;;;;21.98;nan;99201.97;5081344;28;20118;-80
2023/08/01 02:22:16;;;;;;;4.10;2.00;;;;;;;21.98;nan;99194.03;5077448;28;20112;-81
2023/08/01 02:24:41;;;;;;;4.25;1.65;;;;;;;21.97;nan;99205.59;5074362;28;20110;-80
2023/08/01 02:27:06;;;;;;;3.08;1.70;;;;;;;21.99;nan;99194.84;5079247;28;20042;-81
2023/08/01 02:29:32;;;;;;;3.95;1.70;;;;;;;21.99;nan;99194.84;5080183;28;20032;-82
2023/08/01 02:31:57;;;;;;;5.25;2.03;;;;;;;21.99;nan;99186.94;5084449;28;20027;-81
2023/08/01 02:34:22;;;;;;;3.90;1.63;;;;;;;21.98;nan;99187.91;5084975;28;20031;-80
2023/08/01 02:36:48;;;;;;;1.70;1.60;;;;;;;21.98;nan;99187.91;5080328;28;21387;-81
2023/08/01 02:39:13;;;;;;;7.20;2.22;;;;;;;21.98;nan;99182.63;5062411;28;20074;-81
2023/08/01 02:41:38;;;;;;;7.78;2.65;;;;;;;21.98;nan;99183.47;5080562;28;20138;-82
2023/08/01 02:44:04;;;;;;;5.57;2.13;;;;;;;21.99;nan;99186.94;5083820;28;20101;-83
2023/08/01 02:46:29;;;;;;;2.78;1.42;;;;;;;21.98;nan;99180.81;5077520;28;20472;-83
2023/08/01 02:48:55;;;;;;;6.07;1.73;;;;;;;21.99;nan;99165.78;5081441;28;20061;-82
2023/08/01 02:51:20;;;;;;;4.43;1.77;;;;;;;21.98;nan;99164.97;5079582;28;20081;-82
2023/08/01 02:53:46;;;;;;;3.97;1.73;;;;;;;21.98;nan;99159.66;5074911;28;20031;-82
2023/08/01 02:56:11;;;;;;;4.13;1.58;;;;;;;21.98;nan;99148.28;5085953;28;20557;-81
2023/08/01 02:58:36;;;;;;;1.83;1.70;;;;;;;21.98;nan;99137.69;5080231;28;20036;-82
2023/08/01 03:01:07;;;;;;;4.63;2.10;;;;;;;21.98;nan;99151.75;5084935;28;20429;-83
2023/08/01 03:03:32;;;;;;;4.32;1.65;;;;;;;21.98;nan;99158.84;5086211;28;20035;-83
2023/08/01 03:05:57;;;;;;;3.88;2.00;;;;;;;21.98;nan;99161.50;5094369;28;20040;-82
2023/08/01 03:08:23;;;;;;;2.53;1.35;;;;;;;21.98;nan;99164.13;5067620;28;20054;-82
2023/08/01 03:10:49;;;;;;;2.72;1.70;;;;;;;21.97;nan;99160.66;5068096;28;20142;-81
2023/08/01 03:13:14;;;;;;;4.82;1.70;;;;;;;21.97;nan;99163.31;5078983;28;20082;-81
2023/08/01 03:15:39;;;;;;;2.38;1.50;;;;;;;21.98;nan;99164.13;5084448;28;20036;-81
2023/08/01 03:18:05;;;;;;;2.95;1.75;;;;;;;21.97;nan;99163.31;5084365;28;20046;-80
2023/08/01 03:20:30;;;;;;;2.08;1.58;;;;;;;21.98;nan;99172.06;5084855;28;20031;-80
2023/08/01 03:22:55;;;;;;;3.08;1.83;;;;;;;21.98;nan;99185.28;5067037;28;20067;-81
2023/08/01 03:25:21;;;;;;;1.73;1.50;;;;;;;21.98;nan;99175.53;5085984;28;20030;-81
2023/08/01 03:27:46;;;;;;;2.25;1.40;;;;;;;21.99;nan;99181.63;5067421;28;20027;-81
2023/08/01 03:30:11;;;;;;;1.48;1.30;;;;;;;21.98;nan;99166.78;5084072;28;20067;-81
2023/08/01 03:32:37;;;;;;;1.85;1.58;;;;;;;21.97;nan;99168.59;5092564;28;20036;-81
2023/08/01 03:35:04;;;;;;;4.65;1.88;;;;;;;21.97;nan;99158.03;5098109;28;20034;-83
2023/08/01 03:37:29;;;;;;;2.90;1.40;;;;;;;21.99;nan;99171.06;5066527;28;20057;-84
2023/08/01 03:39:55;;;;;;;2.25;1.88;;;;;;;21.98;nan;99149.09;5066822;28;20027;-83
2023/08/01 03:42:20;;;;;;;2.97;1.60;;;;;;;21.99;nan;99155.22;5079908;28;20061;-81
2023/08/01 03:44:45;;;;;;;4.60;1.85;;;;;;;21.98;nan;99156.19;5084672;27;20059;-82
2023/08/01 03:47:10;;;;;;;1.70;1.60;;;;;;;21.99;nan;99142.00;5084735;28;20118;-82
2023/08/01 03:49:36;;;;;;;4.35;1.95;;;;;;;21.99;nan;99139.34;5066671;28;20102;-82
2023/08/01 03:52:01;;;;;;;1.63;1.40;;;;;;;21.99;nan;99134.91;5086874;28;20035;-82
2023/08/01 03:54:27;;;;;;;1.83;1.42;;;;;;;22.00;nan;99127.78;5066958;28;20039;-82
2023/08/01 03:56:52;;;;;;;4.82;1.85;;;;;;;22.00;nan;99130.44;5065023;28;20505;-81
2023/08/01 03:59:18;;;;;;;3.38;1.85;;;;;;;22.00;nan;99136.56;5084557;28;20120;-82
2023/08/01 04:01:43;;;;;;;3.40;1.83;;;;;;;22.00;nan;99133.09;5082517;28;20036;-82
2023/08/01 04:04:09;;;;;;;1.85;1.40;;;;;;;21.99;nan;99124.31;5062834;28;20032;-81
2023/08/01 04:06:34;;;;;;;3.78;1.52;;;;;;;22.00;nan;99115.41;5087550;28;20031;-82
2023/08/01 04:09:00;;;;;;;4.65;1.58;;;;;;;22.00;nan;99118.06;5067465;28;20032;-82
2023/08/01 04:11:26;;;;;;;2.30;1.45;;;;;;;22.01;nan;99132.09;5080703;28;20086;-81
2023/08/01 04:13:52;;;;;;;3.25;1.70;;;;;;;22.00;nan;99135.72;5086062;28;20035;-82
2023/08/01 04:16:17;;;;;;;3.83;1.70;;;;;;;22.00;nan;99143.66;5084719;28;20036;-82
2023/08/01 04:18:42;;;;;;;2.20;1.52;;;;;;;22.00;nan;99143.66;5083484;28;20031;-81
2023/08/01 04:21:08;;;;;;;2.05;1.42;;;;;;;22.00;nan;99138.38;5086786;28;20027;-81
2023/08/01 04:23:33;;;;;;;1.45;1.30;;;;;;;22.00;nan;99119.88;5079492;28;20027;-82
2023/08/01 04:25:59;;;;;;;1.98;1.40;;;;;;;22.00;nan;99099.56;5081586;28;22318;-82
2023/08/01 04:28:24;;;;;;;2.92;1.92;;;;;;;22.00;nan;99090.81;5083561;28;20390;-82
2023/08/01 04:30:51;;;;;;;2.72;1.20;;;;;;;21.99;nan;99092.63;5082484;28;20034;-82
2023/08/01 04:33:16;;;;;;;3.10;1.40;;;;;;;22.00;nan;99117.22;5084339;28;20864;-81
2023/08/01 04:35:41;;;;;;;3.22;1.58;;;;;;;22.02;nan;99118.75;5086197;28;20031;-81
2023/08/01 04:38:08;;;;;;;2.88;1.70;;;;;;;22.01;nan;99118.88;5083610;28;20154;-81
2023/08/01 04:40:34;;;;;;;1.52;1.23;;;;;;;22.01;nan;99117.09;5081678;28;20515;-81
2023/08/01 04:43:00;;;;;;;3.47;1.83;;;;;;;22.04;nan;99126.50;5078972;28;20071;-82
2023/08/01 04:45:26;;;;;;;4.03;1.73;;;;;;;22.11;nan;99119.63;5085397;28;20028;-80
2023/08/01 04:47:51;;;;;;;4.40;1.50;;;;;;;22.10;nan;99116.16;5086777;28;20083;-81
2023/08/01 04:50:16;;;;;;;3.72;1.52;;;;;;;22.07;nan;99132.31;5066782;28;20043;-83
2023/08/01 04:52:41;;;;;;;2.03;1.30;;;;;;;22.06;nan;99137.75;5079269;28;20146;-82
2023/08/01 04:55:07;;;;;;;2.50;1.58;;;;;;;22.03;nan;99135.44;5084669;28;20515;-83
2023/08/01 04:57:32;;;;;;;2.33;1.70;;;;;;;22.02;nan;99108.19;5083750;28;20084;-83
2023/08/01 04:59:59;;;;;;;15.23;2.03;;;;;;;22.00;nan;99102.19;5082490;28;20027;-83
2023/08/01 05:02:24;;;;;;;4.20;1.60;;;;;;;22.00;nan;99096.09;5062073;28;20446;-82
2023/08/01 05:04:50;;;;;;;2.80;1.58;;;;;;;22.00;nan;99096.91;5086071;28;20023;-82
2023/08/01 05:07:15;;;;;;;3.92;1.60;;;;;;;21.99;nan;99124.31;5082622;28;20032;-81
2023/08/01 05:09:41;;;;;;;3.15;1.25;;;;;;;21.98;nan;99127.97;5082471;28;20055;-82
2023/08/01 05:12:06;;;;;;;3.05;1.75;;;;;;;21.99;nan;99118.22;5079944;28;20483;-83
2023/08/01 05:14:32;;;;;;;4.57;1.52;;;;;;;21.99;nan;99123.50;5085602;28;20637;-83
2023/08/01 05:16:57;;;;;;;1.50;1.33;;;;;;;21.98;nan;99124.50;5083062;28;20723;-82
2023/08/01 05:19:22;;;;;;;2.58;1.73;;;;;;;21.98;nan;99132.41;5081569;28;20059;-81
2023/08/01 05:21:48;;;;;;;2.60;1.50;;;;;;;21.95;nan;99126.47;5078847;28;20122;-82
2023/08/01 05:24:14;;;;;;;3.17;1.67;;;;;;;21.95;nan;99118.53;5076794;28;20020;-81
2023/08/01 05:26:39;;;;;;;2.28;1.40;;;;;;;21.95;nan;99115.91;5085680;28;20031;-82
2023/08/01 05:29:04;;;;;;;3.00;1.75;;;;;;;21.95;nan;99131.75;5081669;28;20055;-81
2023/08/01 05:31:30;;;;;;;2.45;1.42;;;;;;;21.96;nan;99138.69;5077942;28;20020;-81
2023/08/01 05:33:55;;;;;;;2.55;1.50;;;;;;;21.95;nan;99107.97;5085294;28;20028;-81
2023/08/01 05:36:21;;;;;;;1.40;1.20;;;;;;;21.95;nan;99123.84;5082507;28;20850;-80
2023/08/01 05:38:46;;;;;;;3.15;1.40;;;;;;;21.95;nan;99118.53;5082240;28;20040;-81
2023/08/01 05:41:12;;;;;;;3.95;2.08;;;;;;;21.94;nan;99135.34;5081418;28;20047;-82
2023/08/01 05:43:37;;;;;;;1.95;1.10;;;;;;;21.96;nan;99124.66;5081372;28;20027;-82
2023/08/01 05:46:02;;;;;;;4.53;1.30;;;;;;;21.94;nan;99122.16;5079655;28;20028;-82
2023/08/01 05:48:28;;;;;;;2.95;1.70;;;;;;;21.95;nan;99115.91;5063522;28;20471;-80
2023/08/01 05:50:55;;;;;;;3.17;1.45;;;;;;;21.94;nan;99118.69;5080163;28;20820;-80
2023/08/01 05:53:20;;;;;;;2.78;1.45;;;;;;;21.94;nan;99122.16;5075141;28;20019;-79
2023/08/01 05:55:46;;;;;;;3.05;2.05;;;;;;;21.94;nan;99130.06;5080191;28;20055;-81
2023/08/01 05:58:11;;;;;;;2.47;1.42;;;;;;;21.91;nan;99138.31;5081126;28;20115;-80
2023/08/01 06:00:37;;;;;;;2.70;1.38;;;;;;;21.91;nan;99137.50;5081425;27;20135;-80
2023/08/01 06:03:02;;;;;;;3.17;1.58;;;;;;;21.90;nan;99146.41;5079582;28;20036;-80
2023/08/01 06:05:28;;;;;;;2.47;1.77;;;;;;;21.89;nan;99137.63;5073478;28;20047;-79
2023/08/01 06:07:53;;;;;;;5.25;2.00;;;;;;;21.90;nan;99134.03;5079530;28;20031;-79
2023/08/01 06:10:19;;;;;;;2.72;1.50;;;;;;;21.90;nan;99131.38;5079424;28;20015;-79
2023/08/01 06:12:44;;;;;;;2.05;1.55;;;;;;;21.89;nan;99132.34;5079889;28;20020;-79
2023/08/01 06:15:10;;;;;;;3.72;2.20;;;;;;;21.90;nan;99120.00;5075733;28;20031;-79
2023/08/01 06:17:35;;;;;;;3.63;1.75;;;;;;;21.92;nan;99118.00;5080230;28;20501;-79
2023/08/01 06:20:04;;;;;;;2.72;1.95;;;;;;;21.89;nan;99124.41;5080073;28;20039;-78
2023/08/01 06:22:29;;;;;;;2.78;1.80;;;;;;;21.89;nan;99116.50;5085521;28;20027;-78
2023/08/01 06:24:54;;;;;;;2.60;1.85;;;;;;;21.88;nan;99120.13;5075096;28;20464;-79
2023/08/01 06:27:20;;;;;;;2.38;2.17;;;;;;;21.87;nan;99121.13;5081294;28;20526;-79
2023/08/01 06:29:45;;;;;;;3.70;1.83;;;;;;;21.85;nan;99128.38;5063151;28;20119;-78
2023/08/01 06:32:11;;;;;;;4.05;2.30;;;;;;;21.87;nan;99134.31;5075504;28;20064;-79
2023/08/01 06:34:36;;;;;;;2.55;2.15;;;;;;;21.86;nan;99137.13;5075107;28;20111;-79
2023/08/01 06:37:02;;;;;;;3.25;2.10;;;;;;;21.86;nan;99140.59;5076034;28;20043;-79
2023/08/01 06:39:27;;;;;;;3.75;2.67;;;;;;;21.54;nan;99141.16;5060997;28;20093;-80
2023/08/01 06:41:52;;;;;;;6.70;2.90;;;;;;;21.19;nan;99139.34;5059570;28;20062;-83
2023/08/01 06:44:18;;;;;;;6.68;2.92;;;;;;;21.38;nan;99133.94;5084871;28;20116;-80
2023/08/01 06:46:43;;;;;;;6.25;2.60;;;;;;;21.57;nan;99118.91;5083838;28;20041;-80
2023/08/01 06:49:08;;;;;;;6.85;3.53;;;;;;;21.68;nan;99111.56;5080111;28;20035;-84
2023/08/01 06:51:34;;;;;;;5.40;3.10;;;;;;;21.71;nan;99105.16;5085963;28;20434;-82
2023/08/01 06:53:59;;;;;;;9.48;2.83;;;;;;;21.75;nan;99093.28;5086051;28;20026;-82
2023/08/01 06:56:24;;;;;;;7.68;2.92;;;;;;;21.78;nan;99100.91;5064112;28;20024;-82
2023/08/01 06:58:50;;;;;;;7.68;3.20;;;;;;;;;;5080184;28;20034;-79
2023/08/01 07:01:15;;;;;;;8.90;3.05;;;;;;;21.80;nan;99093.66;5082333;28;20487;-81
2023/08/01 07:03:41;;;;;;;11.05;2.83;;;;;;;21.80;nan;99098.13;5076803;28;20019;-79
2023/08/01 07:06:06;;;;;;;13.40;3.00;;;;;;;21.79;nan;99113.16;5077410;28;20026;-79
2023/08/01 07:08:32;;;;;;;7.43;3.22;;;;;;;21.79;nan;99105.22;5079018;28;20047;-81
2023/08/01 07:10:59;;;;;;;8.80;3.63;;;;;;;21.79;nan;99094.66;5075480;28;20032;-81
2023/08/01 07:13:25;;;;;;;7.75;2.88;;;;;;;21.78;nan;99090.31;5074348;28;20035;-80
2023/08/01 07:15:50;;;;;;;7.57;2.97;;;;;;;21.79;nan;99088.53;5075673;28;20035;-80
2023/08/01 07:18:16;;;;;;;9.90;2.90;;;;;;;21.80;nan;99084.91;5079653;28;20521;-81
2023/08/01 07:20:41;;;;;;;6.43;2.85;;;;;;;21.79;nan;99094.66;5077996;28;20031;-81
2023/08/01 07:23:06;;;;;;;6.78;2.70;;;;;;;21.79;nan;99078.81;5072943;28;20020;-81
2023/08/01 07:25:32;;;;;;;5.72;2.58;;;;;;;21.79;nan;99092.00;5074345;28;20119;-80
2023/08/01 07:27:57;;;;;;;8.43;2.70;;;;;;;21.80;nan;99101.59;5061651;28;20120;-81
2023/08/01 07:30:23;;;;;;;5.90;2.95;;;;;;;21.81;nan;99102.41;5078556;28;20072;-81
2023/08/01 07:32:48;;;;;;;6.55;2.85;;;;;;;21.81;nan;99105.88;5085759;28;20039;-81
2023/08/01 07:35:13;;;;;;;7.28;3.05;;;;;;;;;;5074286;28;20115;-80
2023/08/01 07:37:39;;;;;;;5.95;2.72;;;;;;;21.82;nan;99112.81;5078552;28;20020;-81
2023/08/01 07:40:06;;;;;;;5.15;2.50;;;;;;;21.82;nan;99123.38;5079945;28;21237;-80
2023/08/01 07:42:31;;;;;;;6.05;2.45;;;;;;;21.83;nan;99119.75;5059534;28;20698;-82
2023/08/01 07:44:56;;;;;;;6.28;2.70;;;;;;;21.85;nan;99116.97;5078151;28;20028;-80
2023/08/01 07:47:23;;;;;;;6.30;2.70;;;;;;;21.85;nan;99125.75;5062783;28;20084;-79
2023/08/01 07:49:49;;;;;;;3.67;2.55;;;;;;;21.85;nan;99135.47;5081793;28;20023;-81
2023/08/01 07:52:14;;;;;;;5.43;2.80;;;;;;;21.85;nan;99136.31;5059553;28;20055;-80
2023/08/01 07:54:39;;;;;;;3.72;2.45;;;;;;;21.85;nan;99138.94;5083140;28;20842;-82
2023/08/01 07:57:05;;;;;;;5.30;2.40;;;;;;;21.85;nan;99144.22;5080743;28;20503;-82
2023/08/01 07:59:31;;;;;;;5.43;2.90;;;;;;;21.86;nan;99156.44;5083208;28;20455;-81
2023/08/01 08:01:56;;;;;;;3.55;2.30;;;;;;;21.86;nan;99161.75;5078896;28;20097;-80
2023/08/01 08:04:21;;;;;;;5.00;2.55;;;;;;;21.86;nan;99156.44;5062587;28;20031;-81
2023/08/01 08:06:47;;;;;;;5.72;2.53;;;;;;;21.86;nan;99158.28;5080464;28;20041;-81
2023/08/01 08:09:12;;;;;;;8.35;2.85;;;;;;;21.86;nan;99151.16;5064763;28;20053;-81
2023/08/01 08:11:37;;;;;;;4.38;2.50;;;;;;;21.88;nan;99162.41;5080804;28;20057;-81
2023/08/01 08:14:03;;;;;;;4.15;2.28;;;;;;;21.87;nan;99163.41;5079539;28;20038;-81
2023/08/01 08:16:29;;;;;;;5.65;2.42;;;;;;;21.89;nan;99155.31;5079773;28;20028;-81
2023/08/01 08:18:54;;;;;;;6.15;2.95;;;;;;;21.89;nan;99161.41;5082010;28;20136;-81
2023/08/01 08:21:19;;;;;;;4.55;2.20;;;;;;;21.91;nan;99164.75;5084089;28;20032;-83
2023/08/01 08:23:45;;;;;;;6.10;2.60;;;;;;;21.91;nan;99164.75;5082387;28;20038;-82
2023/08/01 08:26:10;;;;;;;4.97;2.60;;;;;;;21.92;nan;99171.69;5085009;28;20066;-83
2023/08/01 08:28:36;;;;;;;6.15;2.40;;;;;;;21.91;nan;99170.03;5083765;27;20143;-82
2023/08/01 08:31:03;;;;;;;3.33;2.33;;;;;;;21.92;nan;99174.34;5081233;28;20067;-82
2023/08/01 08:33:28;;;;;;;5.13;2.67;;;;;;;21.91;nan;99170.03;5082655;28;20049;-81
2023/08/01 08:35:54;;;;;;;3.78;2.50;;;;;;;21.90;nan;99167.56;5075226;28;20036;-81
2023/08/01 08:38:20;;;;;;;4.13;2.08;;;;;;;21.89;nan;99171.97;5080537;28;20052;-82
2023/08/01 08:41:03;;;;;;;6.65;2.53;;;;;;;21.89;nan;99171.97;5080841;28;20032;-83
2023/08/01 08:43:30;;;;;;;6.10;2.78;;;;;;;21.89;nan;99171.97;5075680;28;20028;-82
2023/08/01 08:45:57;;;;;;;4.18;2.30;;;;;;;21.91;nan;99175.31;5082568;28;20039;-82
2023/08/01 08:48:24;;;;;;;4.68;2.67;;;;;;;21.92;nan;99181.44;5079326;28;20138;-83
2023/08/01 08:50:50;;;;;;;3.72;2.03;;;;;;;21.90;nan;99173.66;5063688;28;20450;-81
2023/08/01 08:53:15;;;;;;;3.35;2.38;;;;;;;21.90;nan;99172.84;5056303;28;20031;-83
2023/08/01 08:55:41;;;;;;;5.40;2.67;;;;;;;21.90;nan;99172.84;5074845;28;20020;-83
2023/08/01 08:58:07;;;;;;;3.67;2.03;;;;;;;21.90;nan;99173.66;5079506;28;20027;-81
2023/08/01 09:00:33;;;;;;;4.53;2.25;;;;;;;21.90;nan;99181.59;5078042;28;20084;-81
2023/08/01 09:02:58;;;;;;;3.88;2.22;;;;;;;21.89;nan;99179.91;5081835;28;20032;-80
2023/08/01 09:05:27;;;;;;;2.83;2.10;;;;;;;21.92;nan;99178.78;5077001;28;20031;-80
2023/08/01 09:07:55;;;;;;;3.47;1.80;;;;;;;21.92;nan;99182.25;5079831;28;21590;-80
2023/08/01 09:10:20;;;;;;;4.28;2.08;;;;;;;21.89;nan;99187.00;5077690;28;20032;-81
2023/08/01 09:12:46;;;;;;;2.70;2.00;;;;;;;21.89;nan;99193.13;5078733;28;20657;-80
2023/08/01 09:15:12;;;;;;;2.45;1.98;;;;;;;21.88;nan;99194.09;5084993;28;20032;-79
2023/08/01 09:17:48;;;;;;;3.40;2.30;;;;;;;21.87;nan;99197.75;5062652;28;20062;-81
2023/08/01 09:20:13;;;;;;;4.57;1.83;;;;;;;21.88;nan;99204.69;5078539;28;20475;-80
2023/08/01 09:22:45;;;;;;;4.22;2.20;;;;;;;21.88;nan;99204.69;5057404;28;20158;-79
2023/08/01 09:25:11;;;;;;;3.00;2.00;;;;;;;21.90;nan;99199.25;5085591;28;20043;-79
2023/08/01 09:27:37;;;;;;;5.43;2.28;;;;;;;21.89;nan;99198.41;5079347;28;20070;-81
2023/08/01 09:30:11;;;;;;;5.30;1.95;;;;;;;21.91;nan;99201.75;5079461;28;20886;-81
2023/08/01 09:32:37;;;;;;;3.05;2.10;;;;;;;21.95;nan;99208.41;5083608;28;20465;-82
2023/08/01 09:35:03;;;;;;;2.72;2.00;;;;;;;21.98;nan;99201.13;5075997;28;20055;-82
2023/08/01 09:37:41;;;;;;;3.05;2.08;;;;;;;21.95;nan;99203.09;5078625;28;20077;-81
2023/08/01 09:40:07;;;;;;;2.20;2.00;;;;;;;21.96;nan;99203.94;5109935;27;20035;-83
2023/08/01 09:42:41;;;;;;;2.83;2.08;;;;;;;21.97;nan;99205.59;5076718;28;20071;-84
2023/08/01 09:45:16;;;;;;;2.65;2.15;;;;;;;21.95;nan;99203.09;5074592;28;20113;-81
2023/08/01 09:47:43;;;;;;;3.03;2.03;;;;;;;21.98;nan;99209.06;5078839;28;20557;-78
2023/08/01 09:50:19;;;;;;;2.80;2.10;;;;;;;21.99;nan;99210.72;5078036;28;20047;-80
2023/08/01 09:52:52;;;;;;;3.38;2.00;;;;;;;21.99;nan;99205.44;5078953;28;20028;-79
2023/08/01 09:55:18;;;;;;;3.22;2.42;;;;;;;21.99;nan;99206.25;5082206;28;20054;-80
2023/08/01 09:57:47;;;;;;;3.92;1.90;;;;;;;21.98;nan;99209.88;5078362;28;20036;-79
2023/08/01 10:00:13;;;;;;;4.22;2.30;;;;;;;21.95;nan;99216.31;5077852;28;20032;-80
2023/08/01 10:02:38;;;;;;;2.85;2.13;;;;;;;21.92;nan;99211.31;5077595;28;20044;-79
2023/08/01 10:05:04;;;;;;;2.20;2.00;;;;;;;21.91;nan;99207.03;5092123;28;20058;-80
2023/08/01 10:07:30;;;;;;;3.22;1.70;;;;;;;21.94;nan;99217.28;5077797;28;20090;-79
2023/08/01 10:09:58;;;;;;;3.75;2.00;;;;;;;21.97;nan;99210.88;5076917;28;20157;-80
2023/08/01 10:12:25;;;;;;;2.38;2.17;;;;;;;21.98;nan;99211.69;5074050;28;20031;-81
2023/08/01 10:14:51;;;;;;;2.88;2.22;;;;;;;21.98;nan;99204.59;5073436;28;20085;-81
2023/08/01 10:17:16;;;;;;;3.30;1.98;;;;;;;21.99;nan;99206.25;5061684;28;20035;-81
2023/08/01 10:19:42;;;;;;;2.70;2.15;;;;;;;22.00;nan;99220.28;5078612;28;20065;-81
2023/08/01 10:22:08;;;;;;;2.40;2.20;;;;;;;22.00;nan;99213.19;5081416;28;20038;-81
2023/08/01 10:24:34;;;;;;;3.58;2.03;;;;;;;22.01;nan;99211.38;5071004;28;20907;-81
2023/08/01 10:27:29;;;;;;;3.55;2.08;;;;;;;22.02;nan;99215.72;5075943;28;20024;-82
2023/08/01 10:30:02;;;;;;;1.77;1.60;;;;;;;22.02;nan;99213.06;5055944;28;20096;-80
2023/08/01 10:32:36;;;;;;;3.40;1.92;;;;;;;22.02;nan;99202.50;5074451;28;20027;-81
2023/08/01 10:35:02;;;;;;;3.72;2.00;;;;;;;22.02;nan;99213.06;5084366;28;20874;-81
2023/08/01 10:37:42;;;;;;;3.00;1.90;;;;;;;22.01;nan;99216.66;5076829;28;20032;-81
2023/08/01 10:40:08;;;;;;;2.28;2.00;;;;;;;22.01;nan;99216.66;5077469;28;20032;-80
2023/08/01 10:42:39;;;;;;;4.57;1.90;;;;;;;22.02;nan;99213.06;5078634;28;20111;-81
2023/08/01 10:45:05;;;;;;;2.80;2.05;;;;;;;22.01;nan;99211.38;5077199;28;20047;-80
2023/08/01 10:47:31;;;;;;;3.17;1.92;;;;;;;22.02;nan;99221.00;5077841;28;20035;-82
2023/08/01 10:49:57;;;;;;;5.65;1.75;;;;;;;22.06;nan;99222.31;5081706;28;20032;-81
2023/08/01 10:52:27;;;;;;;2.67;1.70;;;;;;;22.05;nan;99221.50;5076487;28;20085;-79
2023/08/01 10:55:10;;;;;;;2.40;1.83;;;;;;;22.05;nan;99224.13;5073149;28;20059;-79
2023/08/01 10:57:39;;;;;;;1.80;1.52;;;;;;;22.05;nan;99233.88;5079557;28;20152;-78
2023/08/01 11:00:09;;;;;;;2.45;1.85;;;;;;;22.05;nan;99233.88;5062738;28;20035;-79
2023/08/01 11:02:36;;;;;;;3.00;1.65;;;;;;;22.08;nan;99239.69;5059676;28;20054;-82
2023/08/01 11:05:06;;;;;;;2.83;2.15;;;;;;;22.09;nan;99235.25;5075947;28;20592;-79
2023/08/01 11:07:33;;;;;;;2.53;1.60;;;;;;;22.10;nan;99236.94;5110832;27;20028;-80
2023/08/01 11:10:16;;;;;;;3.90;1.80;;;;;;;22.08;nan;99239.69;5061084;28;20033;-84
2023/08/01 11:12:43;;;;;;;3.33;2.00;;;;;;;22.06;nan;99249.59;5058305;28;20042;-84
2023/08/01 11:15:10;;;;;;;2.10;1.90;;;;;;;22.07;nan;99245.16;5083533;28;20026;-84
2023/08/01 11:17:37;;;;;;;2.28;1.65;;;;;;;22.08;nan;99241.53;5060701;28;20035;-83
2023/08/01 11:20:11;;;;;;;1.80;1.70;;;;;;;22.07;nan;99245.16;5061837;28;20036;-84
2023/08/01 11:23:08;;;;;;;2.50;1.63;;;;;;;22.09;nan;99251.94;5083590;28;20028;-83
2023/08/01 11:25:43;;;;;;;2.70;1.83;;;;;;;22.11;nan;99243.88;5023851;28;20829;-84
2023/08/01 11:28:14;;;;;;;2.58;1.67;;;;;;;22.11;nan;99246.50;5081551;28;20047;-84
2023/08/01 11:30:40;;;;;;;2.95;1.60;;;;;;;22.12;nan;99245.53;5081691;28;20093;-84
2023/08/01 11:33:21;;;;;;;2.58;1.88;;;;;;;22.12;nan;99256.09;5087341;28;20024;-83
2023/08/01 11:35:51;;;;;;;2.83;1.67;;;;;;;22.13;nan;99250.69;5077120;28;20063;-85
2023/08/01 11:38:17;;;;;;;3.35;1.85;;;;;;;22.13;nan;99252.50;5082240;28;20044;-84
2023/08/01 11:40:42;;;;;;;2.05;1.80;;;;;;;22.15;nan;99251.34;5081519;28;20071;-85
2023/08/01 11:43:08;;;;;;;2.60;1.98;;;;;;;22.16;nan;99254.81;5091801;28;20036;-84
2023/08/01 11:45:33;;;;;;;1.92;1.50;;;;;;;22.11;nan;99257.91;5077144;28;20113;-84
2023/08/01 11:47:58;;;;;;;3.20;1.58;;;;;;;22.10;nan;99263.38;5082242;28;20924;-84